sensor_id;sensor_type;location;lat;lon;timestamp;P1;durP1;ratioP1;P2;durP2;ratioP2
54831;SDS011;40730;53.068;6.572;2022-08-19T00:01:54;12.90;;;8.80;;
54831;SDS011;40730;53.068;6.572;2022-08-19T00:04:22;17.75;;;10.27;;
54831;SDS011;40730;53.068;6.572;2022-08-19T00:07:01;15.23;;;10.88;;
54831;SDS011;40730;53.068;6.572;2022-08-19T00:09:29;15.75;;;9.93;;
54831;SDS011;40730;53.068;6.572;2022-08-19T00:11:55;11.55;;;9.00;;
54831;SDS011;40730;53.068;6.572;2022-08-19T00:14:23;16.05;;;12.27;;
54831;SDS011;40730;53.068;6.572;2022-08-19T00:16:50;12.93;;;10.10;;
54831;SDS011;40730;53.068;6.572;2022-08-19T00:19:20;12.05;;;9.73;;
54831;SDS011;40730;53.068;6.572;2022-08-19T00:21:47;11.40;;;8.30;;
54831;SDS011;40730;53.068;6.572;2022-08-19T00:24:13;12.15;;;8.38;;
54831;SDS011;40730;53.068;6.572;2022-08-19T00:26:40;4.40;;;4.00;;
54831;SDS011;40730;53.068;6.572;2022-08-19T00:29:07;8.63;;;6.30;;
54831;SDS011;40730;53.068;6.572;2022-08-19T00:31:34;12.10;;;6.60;;
54831;SDS011;40730;53.068;6.572;2022-08-19T00:34:00;9.77;;;7.38;;
54831;SDS011;40730;53.068;6.572;2022-08-19T00:36:26;15.57;;;9.45;;
54831;SDS011;40730;53.068;6.572;2022-08-19T00:38:53;12.60;;;10.30;;
54831;SDS011;40730;53.068;6.572;2022-08-19T00:41:19;14.10;;;10.38;;
54831;SDS011;40730;53.068;6.572;2022-08-19T00:46:47;12.02;;;8.85;;
54831;SDS011;40730;53.068;6.572;2022-08-19T00:49:16;10.18;;;7.50;;
54831;SDS011;40730;53.068;6.572;2022-08-19T00:51:48;15.50;;;8.93;;
54831;SDS011;40730;53.068;6.572;2022-08-19T00:54:17;23.33;;;11.48;;
54831;SDS011;40730;53.068;6.572;2022-08-19T00:56:43;11.10;;;9.02;;
54831;SDS011;40730;53.068;6.572;2022-08-19T00:59:10;10.43;;;6.90;;
54831;SDS011;40730;53.068;6.572;2022-08-19T01:01:38;13.20;;;8.80;;
54831;SDS011;40730;53.068;6.572;2022-08-19T01:04:05;4.65;;;4.18;;
54831;SDS011;40730;53.068;6.572;2022-08-19T01:06:32;9.13;;;5.50;;
54831;SDS011;40730;53.068;6.572;2022-08-19T01:09:00;9.43;;;6.55;;
54831;SDS011;40730;53.068;6.572;2022-08-19T01:11:29;10.10;;;6.05;;
54831;SDS011;40730;53.068;6.572;2022-08-19T01:13:56;6.72;;;4.40;;
54831;SDS011;40730;53.068;6.572;2022-08-19T01:16:24;7.40;;;6.05;;
54831;SDS011;40730;53.068;6.572;2022-08-19T01:18:52;11.57;;;9.32;;
54831;SDS011;40730;53.068;6.572;2022-08-19T01:21:22;13.77;;;7.65;;
54831;SDS011;40730;53.068;6.572;2022-08-19T01:24:02;15.15;;;10.15;;
54831;SDS011;40730;53.068;6.572;2022-08-19T01:26:28;16.40;;;10.65;;
54831;SDS011;40730;53.068;6.572;2022-08-19T01:28:55;14.02;;;10.38;;
54831;SDS011;40730;53.068;6.572;2022-08-19T01:31:23;16.02;;;10.50;;
54831;SDS011;40730;53.068;6.572;2022-08-19T01:33:51;6.47;;;4.80;;
54831;SDS011;40730;53.068;6.572;2022-08-19T01:36:22;7.78;;;4.68;;
54831;SDS011;40730;53.068;6.572;2022-08-19T01:38:51;12.77;;;7.63;;
54831;SDS011;40730;53.068;6.572;2022-08-19T01:41:17;18.00;;;9.60;;
54831;SDS011;40730;53.068;6.572;2022-08-19T01:43:43;19.42;;;11.50;;
54831;SDS011;40730;53.068;6.572;2022-08-19T01:46:09;11.82;;;9.25;;
54831;SDS011;40730;53.068;6.572;2022-08-19T01:48:36;3.78;;;3.00;;
54831;SDS011;40730;53.068;6.572;2022-08-19T01:51:04;5.13;;;2.25;;
54831;SDS011;40730;53.068;6.572;2022-08-19T01:53:31;3.65;;;2.30;;
54831;SDS011;40730;53.068;6.572;2022-08-19T01:55:56;2.92;;;2.63;;
54831;SDS011;40730;53.068;6.572;2022-08-19T01:58:24;8.20;;;6.18;;
54831;SDS011;40730;53.068;6.572;2022-08-19T02:00:55;4.63;;;3.65;;
54831;SDS011;40730;53.068;6.572;2022-08-19T02:03:20;8.00;;;4.65;;
54831;SDS011;40730;53.068;6.572;2022-08-19T02:05:47;11.38;;;6.85;;
54831;SDS011;40730;53.068;6.572;2022-08-19T02:08:15;13.55;;;8.13;;
54831;SDS011;40730;53.068;6.572;2022-08-19T02:10:41;15.20;;;9.45;;
54831;SDS011;40730;53.068;6.572;2022-08-19T02:13:09;13.02;;;6.13;;
54831;SDS011;40730;53.068;6.572;2022-08-19T02:15:35;7.20;;;4.72;;
54831;SDS011;40730;53.068;6.572;2022-08-19T02:18:02;9.80;;;5.70;;
54831;SDS011;40730;53.068;6.572;2022-08-19T02:20:27;4.80;;;2.65;;
54831;SDS011;40730;53.068;6.572;2022-08-19T02:22:53;11.38;;;7.07;;
54831;SDS011;40730;53.068;6.572;2022-08-19T02:25:19;14.40;;;10.10;;
54831;SDS011;40730;53.068;6.572;2022-08-19T02:27:44;26.02;;;14.90;;
54831;SDS011;40730;53.068;6.572;2022-08-19T02:30:12;18.42;;;12.20;;
54831;SDS011;40730;53.068;6.572;2022-08-19T02:32:41;22.95;;;13.60;;
54831;SDS011;40730;53.068;6.572;2022-08-19T02:35:07;24.33;;;14.27;;
54831;SDS011;40730;53.068;6.572;2022-08-19T02:37:33;18.85;;;12.30;;
54831;SDS011;40730;53.068;6.572;2022-08-19T02:40:17;29.67;;;14.43;;
54831;SDS011;40730;53.068;6.572;2022-08-19T02:42:43;28.45;;;14.90;;
54831;SDS011;40730;53.068;6.572;2022-08-19T02:45:10;17.58;;;11.55;;
54831;SDS011;40730;53.068;6.572;2022-08-19T02:47:37;24.70;;;14.27;;
54831;SDS011;40730;53.068;6.572;2022-08-19T02:50:03;23.20;;;13.77;;
54831;SDS011;40730;53.068;6.572;2022-08-19T02:52:30;20.63;;;12.25;;
54831;SDS011;40730;53.068;6.572;2022-08-19T02:54:57;18.67;;;13.10;;
54831;SDS011;40730;53.068;6.572;2022-08-19T02:57:23;17.85;;;9.48;;
54831;SDS011;40730;53.068;6.572;2022-08-19T02:59:49;14.98;;;8.00;;
54831;SDS011;40730;53.068;6.572;2022-08-19T03:02:14;11.50;;;7.95;;
54831;SDS011;40730;53.068;6.572;2022-08-19T03:04:40;10.93;;;5.72;;
54831;SDS011;40730;53.068;6.572;2022-08-19T03:07:07;9.05;;;5.78;;
54831;SDS011;40730;53.068;6.572;2022-08-19T03:09:33;13.63;;;7.18;;
54831;SDS011;40730;53.068;6.572;2022-08-19T03:12:02;12.10;;;6.90;;
54831;SDS011;40730;53.068;6.572;2022-08-19T03:14:30;12.45;;;6.15;;
54831;SDS011;40730;53.068;6.572;2022-08-19T03:16:56;15.27;;;7.90;;
54831;SDS011;40730;53.068;6.572;2022-08-19T03:19:22;17.63;;;9.98;;
54831;SDS011;40730;53.068;6.572;2022-08-19T03:21:48;12.23;;;8.43;;
54831;SDS011;40730;53.068;6.572;2022-08-19T03:24:15;17.55;;;10.95;;
54831;SDS011;40730;53.068;6.572;2022-08-19T03:26:43;14.95;;;10.02;;
54831;SDS011;40730;53.068;6.572;2022-08-19T03:29:11;16.83;;;9.23;;
54831;SDS011;40730;53.068;6.572;2022-08-19T03:31:37;14.70;;;7.88;;
54831;SDS011;40730;53.068;6.572;2022-08-19T03:34:04;10.00;;;6.72;;
54831;SDS011;40730;53.068;6.572;2022-08-19T03:36:29;13.68;;;7.10;;
54831;SDS011;40730;53.068;6.572;2022-08-19T03:38:56;10.65;;;6.10;;
54831;SDS011;40730;53.068;6.572;2022-08-19T03:41:25;12.25;;;7.63;;
54831;SDS011;40730;53.068;6.572;2022-08-19T03:43:54;14.32;;;9.18;;
54831;SDS011;40730;53.068;6.572;2022-08-19T03:46:23;20.05;;;9.80;;
54831;SDS011;40730;53.068;6.572;2022-08-19T03:48:52;19.30;;;9.63;;
54831;SDS011;40730;53.068;6.572;2022-08-19T03:51:21;15.02;;;8.77;;
54831;SDS011;40730;53.068;6.572;2022-08-19T03:53:49;24.02;;;12.75;;
54831;SDS011;40730;53.068;6.572;2022-08-19T03:56:15;24.27;;;12.98;;
54831;SDS011;40730;53.068;6.572;2022-08-19T03:58:41;32.65;;;13.43;;
54831;SDS011;40730;53.068;6.572;2022-08-19T04:01:08;18.20;;;9.95;;
54831;SDS011;40730;53.068;6.572;2022-08-19T04:03:39;18.35;;;9.63;;
54831;SDS011;40730;53.068;6.572;2022-08-19T04:06:09;21.80;;;12.73;;
54831;SDS011;40730;53.068;6.572;2022-08-19T04:08:37;23.15;;;12.27;;
54831;SDS011;40730;53.068;6.572;2022-08-19T04:11:11;17.10;;;10.07;;
54831;SDS011;40730;53.068;6.572;2022-08-19T04:13:39;17.52;;;9.98;;
54831;SDS011;40730;53.068;6.572;2022-08-19T04:16:06;16.42;;;10.75;;
54831;SDS011;40730;53.068;6.572;2022-08-19T04:18:35;15.90;;;10.63;;
54831;SDS011;40730;53.068;6.572;2022-08-19T04:21:02;21.20;;;12.13;;
54831;SDS011;40730;53.068;6.572;2022-08-19T04:23:28;17.90;;;11.48;;
54831;SDS011;40730;53.068;6.572;2022-08-19T04:25:54;21.23;;;13.07;;
54831;SDS011;40730;53.068;6.572;2022-08-19T04:28:20;23.00;;;12.18;;
54831;SDS011;40730;53.068;6.572;2022-08-19T04:30:47;16.77;;;11.32;;
54831;SDS011;40730;53.068;6.572;2022-08-19T04:33:14;23.05;;;12.00;;
54831;SDS011;40730;53.068;6.572;2022-08-19T04:35:44;18.70;;;11.63;;
54831;SDS011;40730;53.068;6.572;2022-08-19T04:38:12;22.05;;;12.48;;
54831;SDS011;40730;53.068;6.572;2022-08-19T04:40:42;28.10;;;14.40;;
54831;SDS011;40730;53.068;6.572;2022-08-19T04:43:28;32.45;;;14.95;;
54831;SDS011;40730;53.068;6.572;2022-08-19T04:45:55;35.00;;;15.98;;
54831;SDS011;40730;53.068;6.572;2022-08-19T04:48:21;28.13;;;14.88;;
54831;SDS011;40730;53.068;6.572;2022-08-19T04:50:54;10.95;;;5.32;;
54831;SDS011;40730;53.068;6.572;2022-08-19T04:53:25;11.05;;;6.38;;
54831;SDS011;40730;53.068;6.572;2022-08-19T04:55:53;13.32;;;7.88;;
54831;SDS011;40730;53.068;6.572;2022-08-19T04:58:20;14.15;;;8.52;;
54831;SDS011;40730;53.068;6.572;2022-08-19T05:00:45;17.88;;;10.38;;
54831;SDS011;40730;53.068;6.572;2022-08-19T05:03:11;29.75;;;14.57;;
54831;SDS011;40730;53.068;6.572;2022-08-19T05:05:43;22.95;;;11.15;;
54831;SDS011;40730;53.068;6.572;2022-08-19T05:08:11;24.52;;;12.25;;
54831;SDS011;40730;53.068;6.572;2022-08-19T05:10:37;29.10;;;15.55;;
54831;SDS011;40730;53.068;6.572;2022-08-19T05:13:04;37.67;;;16.70;;
54831;SDS011;40730;53.068;6.572;2022-08-19T05:15:30;29.25;;;14.80;;
54831;SDS011;40730;53.068;6.572;2022-08-19T05:17:56;39.15;;;18.25;;
54831;SDS011;40730;53.068;6.572;2022-08-19T05:20:40;16.20;;;7.85;;
54831;SDS011;40730;53.068;6.572;2022-08-19T05:23:24;7.03;;;4.60;;
54831;SDS011;40730;53.068;6.572;2022-08-19T05:25:50;8.90;;;4.18;;
54831;SDS011;40730;53.068;6.572;2022-08-19T05:28:17;4.95;;;3.78;;
54831;SDS011;40730;53.068;6.572;2022-08-19T05:30:43;6.72;;;4.78;;
54831;SDS011;40730;53.068;6.572;2022-08-19T05:33:10;28.70;;;6.75;;
54831;SDS011;40730;53.068;6.572;2022-08-19T05:35:37;15.80;;;8.45;;
54831;SDS011;40730;53.068;6.572;2022-08-19T05:38:04;24.40;;;11.38;;
54831;SDS011;40730;53.068;6.572;2022-08-19T05:40:33;25.58;;;12.52;;
54831;SDS011;40730;53.068;6.572;2022-08-19T05:43:01;31.67;;;14.70;;
54831;SDS011;40730;53.068;6.572;2022-08-19T05:45:28;34.70;;;14.63;;
54831;SDS011;40730;53.068;6.572;2022-08-19T05:47:53;27.60;;;13.43;;
54831;SDS011;40730;53.068;6.572;2022-08-19T05:50:19;33.63;;;15.35;;
54831;SDS011;40730;53.068;6.572;2022-08-19T05:52:45;30.58;;;15.05;;
54831;SDS011;40730;53.068;6.572;2022-08-19T05:55:10;41.40;;;18.17;;
54831;SDS011;40730;53.068;6.572;2022-08-19T05:57:36;32.13;;;16.50;;
54831;SDS011;40730;53.068;6.572;2022-08-19T06:00:04;40.83;;;18.25;;
54831;SDS011;40730;53.068;6.572;2022-08-19T06:02:36;38.85;;;18.88;;
54831;SDS011;40730;53.068;6.572;2022-08-19T06:05:03;41.42;;;19.90;;
54831;SDS011;40730;53.068;6.572;2022-08-19T06:07:32;41.55;;;19.70;;
54831;SDS011;40730;53.068;6.572;2022-08-19T06:09:57;40.00;;;19.42;;
54831;SDS011;40730;53.068;6.572;2022-08-19T06:12:23;37.83;;;19.23;;
54831;SDS011;40730;53.068;6.572;2022-08-19T06:14:53;42.92;;;22.17;;
54831;SDS011;40730;53.068;6.572;2022-08-19T06:17:19;46.33;;;21.10;;
54831;SDS011;40730;53.068;6.572;2022-08-19T06:19:47;38.35;;;21.25;;
54831;SDS011;40730;53.068;6.572;2022-08-19T06:22:14;34.67;;;20.77;;
54831;SDS011;40730;53.068;6.572;2022-08-19T06:24:41;36.75;;;20.70;;
54831;SDS011;40730;53.068;6.572;2022-08-19T06:27:06;39.85;;;21.38;;
54831;SDS011;40730;53.068;6.572;2022-08-19T06:29:32;35.28;;;20.60;;
54831;SDS011;40730;53.068;6.572;2022-08-19T06:32:00;32.53;;;18.73;;
54831;SDS011;40730;53.068;6.572;2022-08-19T06:34:28;28.73;;;17.38;;
54831;SDS011;40730;53.068;6.572;2022-08-19T06:36:56;27.95;;;17.10;;
54831;SDS011;40730;53.068;6.572;2022-08-19T06:39:28;26.92;;;16.42;;
54831;SDS011;40730;53.068;6.572;2022-08-19T06:41:59;26.27;;;17.17;;
54831;SDS011;40730;53.068;6.572;2022-08-19T06:44:27;23.02;;;16.23;;
54831;SDS011;40730;53.068;6.572;2022-08-19T06:46:58;23.88;;;15.43;;
54831;SDS011;40730;53.068;6.572;2022-08-19T06:49:23;20.25;;;15.93;;
54831;SDS011;40730;53.068;6.572;2022-08-19T06:51:52;22.48;;;15.20;;
54831;SDS011;40730;53.068;6.572;2022-08-19T06:54:18;17.73;;;13.75;;
54831;SDS011;40730;53.068;6.572;2022-08-19T06:56:44;20.48;;;13.85;;
54831;SDS011;40730;53.068;6.572;2022-08-19T06:59:11;17.23;;;13.68;;
54831;SDS011;40730;53.068;6.572;2022-08-19T07:01:41;16.75;;;12.68;;
54831;SDS011;40730;53.068;6.572;2022-08-19T07:04:13;14.23;;;11.30;;
54831;SDS011;40730;53.068;6.572;2022-08-19T07:06:40;14.07;;;12.57;;
54831;SDS011;40730;53.068;6.572;2022-08-19T07:09:07;15.50;;;11.57;;
54831;SDS011;40730;53.068;6.572;2022-08-19T07:11:34;15.13;;;11.88;;
54831;SDS011;40730;53.068;6.572;2022-08-19T07:14:00;13.40;;;11.48;;
54831;SDS011;40730;53.068;6.572;2022-08-19T07:16:26;12.88;;;11.07;;
54831;SDS011;40730;53.068;6.572;2022-08-19T07:18:53;12.32;;;10.02;;
54831;SDS011;40730;53.068;6.572;2022-08-19T07:21:20;12.35;;;10.60;;
54831;SDS011;40730;53.068;6.572;2022-08-19T07:23:47;15.65;;;11.80;;
54831;SDS011;40730;53.068;6.572;2022-08-19T07:26:15;11.82;;;10.25;;
54831;SDS011;40730;53.068;6.572;2022-08-19T07:28:44;11.43;;;10.15;;
54831;SDS011;40730;53.068;6.572;2022-08-19T07:31:12;11.70;;;10.10;;
54831;SDS011;40730;53.068;6.572;2022-08-19T07:33:39;11.40;;;10.30;;
54831;SDS011;40730;53.068;6.572;2022-08-19T07:36:06;11.30;;;9.80;;
54831;SDS011;40730;53.068;6.572;2022-08-19T07:38:36;10.57;;;9.50;;
54831;SDS011;40730;53.068;6.572;2022-08-19T07:41:03;12.75;;;9.07;;
54831;SDS011;40730;53.068;6.572;2022-08-19T07:43:29;10.25;;;8.52;;
54831;SDS011;40730;53.068;6.572;2022-08-19T07:45:54;9.55;;;8.70;;
54831;SDS011;40730;53.068;6.572;2022-08-19T07:48:24;9.55;;;8.65;;
54831;SDS011;40730;53.068;6.572;2022-08-19T07:50:52;9.73;;;8.55;;
54831;SDS011;40730;53.068;6.572;2022-08-19T07:53:19;9.57;;;7.10;;
54831;SDS011;40730;53.068;6.572;2022-08-19T07:55:45;7.95;;;7.03;;
54831;SDS011;40730;53.068;6.572;2022-08-19T07:58:12;8.68;;;6.95;;
54831;SDS011;40730;53.068;6.572;2022-08-19T08:00:40;6.78;;;6.07;;
54831;SDS011;40730;53.068;6.572;2022-08-19T08:03:07;7.47;;;6.07;;
54831;SDS011;40730;53.068;6.572;2022-08-19T08:05:33;10.13;;;6.25;;
54831;SDS011;40730;53.068;6.572;2022-08-19T08:08:17;7.35;;;6.20;;
54831;SDS011;40730;53.068;6.572;2022-08-19T08:11:02;6.82;;;6.13;;
54831;SDS011;40730;53.068;6.572;2022-08-19T08:13:28;8.70;;;5.88;;
54831;SDS011;40730;53.068;6.572;2022-08-19T08:15:55;7.72;;;6.22;;
54831;SDS011;40730;53.068;6.572;2022-08-19T08:18:22;7.22;;;6.20;;
54831;SDS011;40730;53.068;6.572;2022-08-19T08:20:48;8.20;;;7.38;;
54831;SDS011;40730;53.068;6.572;2022-08-19T08:23:14;7.40;;;6.65;;
54831;SDS011;40730;53.068;6.572;2022-08-19T08:25:50;8.48;;;5.93;;
54831;SDS011;40730;53.068;6.572;2022-08-19T08:28:19;9.30;;;6.65;;
54831;SDS011;40730;53.068;6.572;2022-08-19T08:30:46;7.30;;;6.57;;
54831;SDS011;40730;53.068;6.572;2022-08-19T08:33:13;7.75;;;6.18;;
54831;SDS011;40730;53.068;6.572;2022-08-19T08:35:44;8.48;;;6.28;;
54831;SDS011;40730;53.068;6.572;2022-08-19T08:38:10;8.77;;;7.90;;
54831;SDS011;40730;53.068;6.572;2022-08-19T08:43:29;5.53;;;5.13;;
54831;SDS011;40730;53.068;6.572;2022-08-19T08:46:09;7.20;;;4.80;;
54831;SDS011;40730;53.068;6.572;2022-08-19T08:51:07;7.47;;;4.78;;
54831;SDS011;40730;53.068;6.572;2022-08-19T08:53:37;5.35;;;4.50;;
54831;SDS011;40730;53.068;6.572;2022-08-19T08:56:04;5.10;;;4.32;;
54831;SDS011;40730;53.068;6.572;2022-08-19T09:01:09;4.53;;;4.13;;
54831;SDS011;40730;53.068;6.572;2022-08-19T09:03:36;3.55;;;3.25;;
54831;SDS011;40730;53.068;6.572;2022-08-19T09:06:54;4.30;;;3.90;;
54831;SDS011;40730;53.068;6.572;2022-08-19T09:09:30;4.28;;;2.72;;
54831;SDS011;40730;53.068;6.572;2022-08-19T09:12:05;3.42;;;2.95;;
54831;SDS011;40730;53.068;6.572;2022-08-19T09:14:47;3.58;;;3.28;;
54831;SDS011;40730;53.068;6.572;2022-08-19T09:17:25;7.50;;;5.50;;
54831;SDS011;40730;53.068;6.572;2022-08-19T09:20:10;6.30;;;4.68;;
54831;SDS011;40730;53.068;6.572;2022-08-19T09:22:46;4.38;;;3.97;;
54831;SDS011;40730;53.068;6.572;2022-08-19T09:25:14;5.90;;;4.75;;
54831;SDS011;40730;53.068;6.572;2022-08-19T09:27:47;4.97;;;4.57;;
54831;SDS011;40730;53.068;6.572;2022-08-19T09:30:17;7.90;;;5.32;;
54831;SDS011;40730;53.068;6.572;2022-08-19T09:32:49;5.88;;;5.38;;
54831;SDS011;40730;53.068;6.572;2022-08-19T09:35:17;5.63;;;5.13;;
54831;SDS011;40730;53.068;6.572;2022-08-19T09:37:44;6.50;;;5.32;;
54831;SDS011;40730;53.068;6.572;2022-08-19T09:40:10;5.85;;;4.90;;
54831;SDS011;40730;53.068;6.572;2022-08-19T09:42:36;7.32;;;5.97;;
54831;SDS011;40730;53.068;6.572;2022-08-19T09:45:02;5.85;;;5.35;;
54831;SDS011;40730;53.068;6.572;2022-08-19T09:47:28;4.65;;;4.32;;
54831;SDS011;40730;53.068;6.572;2022-08-19T09:49:54;6.93;;;5.00;;
54831;SDS011;40730;53.068;6.572;2022-08-19T09:52:20;5.53;;;5.00;;
54831;SDS011;40730;53.068;6.572;2022-08-19T09:54:46;8.15;;;5.72;;
54831;SDS011;40730;53.068;6.572;2022-08-19T09:57:12;5.25;;;4.85;;
54831;SDS011;40730;53.068;6.572;2022-08-19T09:59:38;5.57;;;4.25;;
54831;SDS011;40730;53.068;6.572;2022-08-19T10:02:05;6.40;;;5.05;;
54831;SDS011;40730;53.068;6.572;2022-08-19T10:04:30;7.18;;;4.35;;
54831;SDS011;40730;53.068;6.572;2022-08-19T10:07:15;8.95;;;6.38;;
54831;SDS011;40730;53.068;6.572;2022-08-19T10:09:40;6.45;;;5.60;;
54831;SDS011;40730;53.068;6.572;2022-08-19T10:12:07;6.20;;;5.55;;
54831;SDS011;40730;53.068;6.572;2022-08-19T10:14:33;6.05;;;5.55;;
54831;SDS011;40730;53.068;6.572;2022-08-19T10:17:00;6.60;;;4.88;;
54831;SDS011;40730;53.068;6.572;2022-08-19T10:19:27;8.88;;;6.25;;
54831;SDS011;40730;53.068;6.572;2022-08-19T10:21:55;6.65;;;5.90;;
54831;SDS011;40730;53.068;6.572;2022-08-19T10:24:20;5.38;;;4.88;;
54831;SDS011;40730;53.068;6.572;2022-08-19T10:26:49;4.63;;;4.28;;
54831;SDS011;40730;53.068;6.572;2022-08-19T10:29:14;7.30;;;6.60;;
54831;SDS011;40730;53.068;6.572;2022-08-19T10:31:41;6.45;;;4.97;;
54831;SDS011;40730;53.068;6.572;2022-08-19T10:34:07;4.90;;;4.47;;
54831;SDS011;40730;53.068;6.572;2022-08-19T10:36:34;4.80;;;4.47;;
54831;SDS011;40730;53.068;6.572;2022-08-19T10:39:03;5.20;;;4.82;;
54831;SDS011;40730;53.068;6.572;2022-08-19T10:41:34;7.35;;;5.70;;
54831;SDS011;40730;53.068;6.572;2022-08-19T10:44:05;6.28;;;5.20;;
54831;SDS011;40730;53.068;6.572;2022-08-19T10:46:33;5.18;;;4.88;;
54831;SDS011;40730;53.068;6.572;2022-08-19T10:49:05;7.60;;;7.07;;
54831;SDS011;40730;53.068;6.572;2022-08-19T10:51:31;8.25;;;7.45;;
54831;SDS011;40730;53.068;6.572;2022-08-19T10:54:16;5.73;;;5.17;;
54831;SDS011;40730;53.068;6.572;2022-08-19T10:56:42;5.00;;;4.70;;
54831;SDS011;40730;53.068;6.572;2022-08-19T10:59:22;8.85;;;7.65;;
54831;SDS011;40730;53.068;6.572;2022-08-19T11:01:49;9.32;;;8.43;;
54831;SDS011;40730;53.068;6.572;2022-08-19T11:04:16;9.05;;;8.27;;
54831;SDS011;40730;53.068;6.572;2022-08-19T11:06:44;9.25;;;8.20;;
54831;SDS011;40730;53.068;6.572;2022-08-19T11:09:12;9.13;;;8.35;;
54831;SDS011;40730;53.068;6.572;2022-08-19T11:11:40;8.75;;;7.82;;
54831;SDS011;40730;53.068;6.572;2022-08-19T11:14:13;10.50;;;9.60;;
54831;SDS011;40730;53.068;6.572;2022-08-19T11:16:44;8.63;;;7.93;;
54831;SDS011;40730;53.068;6.572;2022-08-19T11:19:10;6.10;;;5.60;;
54831;SDS011;40730;53.068;6.572;2022-08-19T11:21:39;6.15;;;5.50;;
54831;SDS011;40730;53.068;6.572;2022-08-19T11:24:08;6.95;;;6.22;;
54831;SDS011;40730;53.068;6.572;2022-08-19T11:26:37;8.77;;;7.97;;
54831;SDS011;40730;53.068;6.572;2022-08-19T11:29:04;6.20;;;5.70;;
54831;SDS011;40730;53.068;6.572;2022-08-19T11:31:33;7.40;;;6.70;;
54831;SDS011;40730;53.068;6.572;2022-08-19T11:34:02;7.22;;;6.60;;
54831;SDS011;40730;53.068;6.572;2022-08-19T11:36:30;8.43;;;7.45;;
54831;SDS011;40730;53.068;6.572;2022-08-19T11:38:57;6.75;;;6.35;;
54831;SDS011;40730;53.068;6.572;2022-08-19T11:41:24;7.57;;;6.90;;
54831;SDS011;40730;53.068;6.572;2022-08-19T11:43:53;6.53;;;6.03;;
54831;SDS011;40730;53.068;6.572;2022-08-19T11:46:20;8.52;;;7.57;;
54831;SDS011;40730;53.068;6.572;2022-08-19T11:48:47;12.73;;;11.63;;
54831;SDS011;40730;53.068;6.572;2022-08-19T11:51:16;13.65;;;12.38;;
54831;SDS011;40730;53.068;6.572;2022-08-19T11:53:43;15.10;;;12.88;;
54831;SDS011;40730;53.068;6.572;2022-08-19T11:56:10;11.80;;;10.80;;
54831;SDS011;40730;53.068;6.572;2022-08-19T11:58:36;10.63;;;9.60;;
54831;SDS011;40730;53.068;6.572;2022-08-19T12:01:06;9.25;;;8.50;;
54831;SDS011;40730;53.068;6.572;2022-08-19T12:03:33;8.27;;;7.53;;
54831;SDS011;40730;53.068;6.572;2022-08-19T12:06:03;7.95;;;6.82;;
54831;SDS011;40730;53.068;6.572;2022-08-19T12:08:32;10.73;;;9.70;;
54831;SDS011;40730;53.068;6.572;2022-08-19T12:10:58;10.02;;;8.52;;
54831;SDS011;40730;53.068;6.572;2022-08-19T12:13:26;9.35;;;8.60;;
54831;SDS011;40730;53.068;6.572;2022-08-19T12:15:53;9.52;;;8.63;;
54831;SDS011;40730;53.068;6.572;2022-08-19T12:18:19;7.60;;;7.00;;
54831;SDS011;40730;53.068;6.572;2022-08-19T12:20:45;7.43;;;6.82;;
54831;SDS011;40730;53.068;6.572;2022-08-19T12:23:12;7.28;;;6.57;;
54831;SDS011;40730;53.068;6.572;2022-08-19T12:25:43;5.97;;;5.55;;
54831;SDS011;40730;53.068;6.572;2022-08-19T12:28:17;6.07;;;4.68;;
54831;SDS011;40730;53.068;6.572;2022-08-19T12:30:47;8.50;;;5.05;;
54831;SDS011;40730;53.068;6.572;2022-08-19T12:33:13;4.40;;;4.07;;
54831;SDS011;40730;53.068;6.572;2022-08-19T12:35:43;7.40;;;5.28;;
54831;SDS011;40730;53.068;6.572;2022-08-19T12:38:11;7.57;;;5.15;;
54831;SDS011;40730;53.068;6.572;2022-08-19T12:40:37;4.75;;;3.92;;
54831;SDS011;40730;53.068;6.572;2022-08-19T12:43:04;5.43;;;4.10;;
54831;SDS011;40730;53.068;6.572;2022-08-19T12:45:31;4.75;;;3.90;;
54831;SDS011;40730;53.068;6.572;2022-08-19T12:47:56;7.82;;;4.70;;
54831;SDS011;40730;53.068;6.572;2022-08-19T12:50:22;3.97;;;3.42;;
54831;SDS011;40730;53.068;6.572;2022-08-19T12:52:47;3.75;;;2.90;;
54831;SDS011;40730;53.068;6.572;2022-08-19T12:55:13;3.80;;;3.28;;
54831;SDS011;40730;53.068;6.572;2022-08-19T12:57:39;3.63;;;3.30;;
54831;SDS011;40730;53.068;6.572;2022-08-19T13:00:07;4.80;;;3.78;;
54831;SDS011;40730;53.068;6.572;2022-08-19T13:02:39;4.60;;;4.00;;
54831;SDS011;40730;53.068;6.572;2022-08-19T13:05:07;5.38;;;4.57;;
54831;SDS011;40730;53.068;6.572;2022-08-19T13:07:36;7.40;;;4.70;;
54831;SDS011;40730;53.068;6.572;2022-08-19T13:10:04;6.50;;;4.43;;
54831;SDS011;40730;53.068;6.572;2022-08-19T13:12:34;4.13;;;3.70;;
54831;SDS011;40730;53.068;6.572;2022-08-19T13:15:00;6.40;;;4.30;;
54831;SDS011;40730;53.068;6.572;2022-08-19T13:17:26;7.15;;;5.07;;
54831;SDS011;40730;53.068;6.572;2022-08-19T13:19:52;6.22;;;5.57;;
54831;SDS011;40730;53.068;6.572;2022-08-19T13:22:17;11.13;;;6.80;;
54831;SDS011;40730;53.068;6.572;2022-08-19T13:24:43;8.27;;;7.10;;
54831;SDS011;40730;53.068;6.572;2022-08-19T13:27:09;10.10;;;9.10;;
54831;SDS011;40730;53.068;6.572;2022-08-19T13:29:35;12.55;;;10.82;;
54831;SDS011;40730;53.068;6.572;2022-08-19T13:32:19;12.90;;;10.85;;
54831;SDS011;40730;53.068;6.572;2022-08-19T13:35:03;14.02;;;11.10;;
54831;SDS011;40730;53.068;6.572;2022-08-19T13:37:30;17.13;;;11.93;;
54831;SDS011;40730;53.068;6.572;2022-08-19T13:40:08;14.05;;;11.70;;
54831;SDS011;40730;53.068;6.572;2022-08-19T13:42:38;16.58;;;13.20;;
54831;SDS011;40730;53.068;6.572;2022-08-19T13:45:04;17.45;;;13.52;;
54831;SDS011;40730;53.068;6.572;2022-08-19T13:47:31;18.52;;;14.73;;
54831;SDS011;40730;53.068;6.572;2022-08-19T13:49:59;23.73;;;16.63;;
54831;SDS011;40730;53.068;6.572;2022-08-19T13:52:27;19.75;;;15.75;;
54831;SDS011;40730;53.068;6.572;2022-08-19T13:54:52;21.20;;;16.65;;
54831;SDS011;40730;53.068;6.572;2022-08-19T13:57:19;21.58;;;16.58;;
54831;SDS011;40730;53.068;6.572;2022-08-19T13:59:44;23.20;;;16.58;;
54831;SDS011;40730;53.068;6.572;2022-08-19T14:02:10;15.68;;;13.63;;
54831;SDS011;40730;53.068;6.572;2022-08-19T14:04:36;16.38;;;13.35;;
54831;SDS011;40730;53.068;6.572;2022-08-19T14:07:02;16.58;;;13.05;;
54831;SDS011;40730;53.068;6.572;2022-08-19T14:09:28;16.45;;;13.05;;
54831;SDS011;40730;53.068;6.572;2022-08-19T14:11:54;14.50;;;12.50;;
54831;SDS011;40730;53.068;6.572;2022-08-19T14:14:20;18.15;;;13.40;;
54831;SDS011;40730;53.068;6.572;2022-08-19T14:16:46;18.73;;;12.88;;
54831;SDS011;40730;53.068;6.572;2022-08-19T14:19:13;21.35;;;13.85;;
54831;SDS011;40730;53.068;6.572;2022-08-19T14:21:39;15.65;;;12.70;;
54831;SDS011;40730;53.068;6.572;2022-08-19T14:24:06;17.38;;;12.75;;
54831;SDS011;40730;53.068;6.572;2022-08-19T14:26:31;20.45;;;13.23;;
54831;SDS011;40730;53.068;6.572;2022-08-19T14:28:57;14.90;;;11.50;;
54831;SDS011;40730;53.068;6.572;2022-08-19T14:31:23;13.65;;;10.77;;
54831;SDS011;40730;53.068;6.572;2022-08-19T14:33:49;14.90;;;11.93;;
54831;SDS011;40730;53.068;6.572;2022-08-19T14:36:16;15.95;;;12.32;;
54831;SDS011;40730;53.068;6.572;2022-08-19T14:38:42;18.73;;;13.68;;
54831;SDS011;40730;53.068;6.572;2022-08-19T14:41:09;18.77;;;13.38;;
54831;SDS011;40730;53.068;6.572;2022-08-19T14:43:35;18.00;;;13.63;;
54831;SDS011;40730;53.068;6.572;2022-08-19T14:46:00;18.25;;;13.43;;
54831;SDS011;40730;53.068;6.572;2022-08-19T14:48:26;20.08;;;14.30;;
54831;SDS011;40730;53.068;6.572;2022-08-19T14:50:52;19.75;;;15.07;;
54831;SDS011;40730;53.068;6.572;2022-08-19T14:53:18;23.13;;;17.38;;